createdAt,value
2022-10-13T00:03:12.722Z,17.98
2022-10-13T00:08:15.977Z,18.02
2022-10-13T00:13:17.760Z,18.07
2022-10-13T00:18:19.289Z,18.06
2022-10-13T00:23:20.752Z,18.03
2022-10-13T00:28:22.222Z,18.14
2022-10-13T00:33:23.712Z,18.21
2022-10-13T00:38:25.160Z,17.97
2022-10-13T00:44:01.589Z,17.96
2022-10-13T00:49:21.122Z,18.06
2022-10-13T00:54:22.866Z,18.09
2022-10-13T00:59:27.264Z,18.07
2022-10-13T01:04:32.118Z,18.08
2022-10-13T01:09:39.324Z,18.36
2022-10-13T01:14:52.211Z,18.19
2022-10-13T01:20:20.328Z,18.10
2022-10-13T01:25:40.236Z,17.95
2022-10-13T01:30:49.117Z,18.28
2022-10-13T01:36:06.985Z,18.23
2022-10-13T01:41:15.597Z,18.35
2022-10-13T01:46:30.888Z,18.38
2022-10-13T01:51:32.253Z,18.19
2022-10-13T01:56:34.143Z,18.17
2022-10-13T02:01:55.781Z,18.14
2022-10-13T02:06:59.846Z,18.14
2022-10-13T02:12:07.244Z,18.13
2022-10-13T02:17:08.712Z,18.20
2022-10-13T02:22:11.048Z,18.04
2022-10-13T02:27:12.869Z,18.05
2022-10-13T02:32:14.325Z,18.04
2022-10-13T02:37:15.789Z,18.07
2022-10-13T02:42:17.656Z,17.93
2022-10-13T02:47:19.387Z,17.85
2022-10-13T02:52:21.541Z,17.97
2022-10-13T02:57:23.114Z,17.84
2022-10-13T03:02:25.791Z,17.93
2022-10-13T03:07:27.293Z,18.00
2022-10-13T03:12:28.751Z,18.04
2022-10-13T03:17:30.202Z,17.86
2022-10-13T03:22:32.523Z,17.89
2022-10-13T03:27:34.017Z,17.68
2022-10-13T03:32:35.477Z,17.77
2022-10-13T03:37:36.938Z,17.67
2022-10-13T03:42:38.540Z,17.74
2022-10-13T03:47:40.017Z,17.78
2022-10-13T03:52:41.462Z,17.73
2022-10-13T03:57:43.785Z,17.82
2022-10-13T04:02:45.273Z,17.72
2022-10-13T04:07:46.729Z,17.69
2022-10-13T04:12:49.095Z,17.87
2022-10-13T04:17:50.549Z,17.96
2022-10-13T04:22:52.046Z,17.99
2022-10-13T04:27:53.524Z,17.95
2022-10-13T04:32:54.981Z,17.88
2022-10-13T04:37:58.997Z,17.96
2022-10-13T04:43:00.487Z,17.97
2022-10-13T04:48:01.980Z,17.97
2022-10-13T04:53:03.487Z,17.90
2022-10-13T04:58:04.958Z,17.86
2022-10-13T05:03:06.425Z,17.55
2022-10-13T05:08:07.884Z,17.82
2022-10-13T05:13:09.337Z,17.76
2022-10-13T05:18:10.801Z,17.83
2022-10-13T05:23:12.895Z,17.89
2022-10-13T05:28:14.482Z,17.80
2022-10-13T05:33:16.001Z,17.53
2022-10-13T05:38:17.445Z,17.71
2022-10-13T05:43:18.913Z,17.45
2022-10-13T05:48:20.368Z,17.42
2022-10-13T05:53:23.053Z,17.45
2022-10-13T05:58:24.520Z,17.51
2022-10-13T06:03:25.969Z,17.58
2022-10-13T06:08:27.432Z,17.54
2022-10-13T06:13:28.878Z,17.37
2022-10-13T06:18:30.374Z,17.11
2022-10-13T06:23:31.811Z,17.45
2022-10-13T06:28:33.309Z,17.44
2022-10-13T06:33:34.773Z,17.47
2022-10-13T06:38:36.287Z,17.52
2022-10-13T06:43:40.373Z,17.27
2022-10-13T06:48:42.240Z,16.97
2022-10-13T06:53:43.694Z,17.30
2022-10-13T06:58:45.403Z,17.34
2022-10-13T07:03:50.531Z,17.46
2022-10-13T07:08:52.068Z,17.69
2022-10-13T07:13:54.005Z,17.56
2022-10-13T07:18:55.489Z,17.55
2022-10-13T07:23:56.931Z,17.58
2022-10-13T07:28:58.539Z,17.68
2022-10-13T07:34:00.142Z,17.69
2022-10-13T07:39:03.116Z,17.54
2022-10-13T07:44:04.717Z,17.55
2022-10-13T07:49:06.179Z,17.70
2022-10-13T07:54:07.633Z,17.70
2022-10-13T07:59:09.178Z,17.41
2022-10-13T08:04:10.767Z,17.38
2022-10-13T08:09:12.470Z,17.26
2022-10-13T08:14:14.054Z,17.21
2022-10-13T08:19:20.188Z,16.97
2022-10-13T08:24:24.662Z,17.31
2022-10-13T08:29:26.241Z,16.79
2022-10-13T08:34:27.825Z,16.91
2022-10-13T08:39:29.301Z,16.42
2022-10-13T08:50:02.831Z,16.37
2022-10-13T08:55:05.759Z,16.78
2022-10-13T09:00:10.428Z,16.78
2022-10-13T09:05:22.244Z,16.80
2022-10-13T09:10:23.717Z,16.92
2022-10-13T09:15:25.200Z,16.98
2022-10-13T09:20:29.152Z,17.42
2022-10-13T09:25:31.575Z,17.62
2022-10-13T09:30:36.973Z,17.62
2022-10-13T09:35:39.994Z,17.59
2022-10-13T09:45:43.127Z,17.65
2022-10-13T09:50:48.311Z,17.59
2022-10-13T09:55:49.880Z,17.78
2022-10-13T10:00:51.448Z,17.71
2022-10-13T10:05:57.267Z,17.97
2022-10-13T10:11:00.759Z,18.01
2022-10-13T10:16:12.432Z,18.24
2022-10-13T10:21:38.588Z,18.49
2022-10-13T10:26:48.816Z,18.37
2022-10-13T10:32:15.972Z,18.41
2022-10-13T10:37:44.331Z,17.84
2022-10-13T10:43:26.195Z,17.92
2022-10-13T10:48:33.254Z,18.29
2022-10-13T10:53:53.234Z,18.25
2022-10-13T10:59:06.497Z,18.20
2022-10-13T11:04:32.356Z,18.30
2022-10-13T11:09:42.738Z,18.50
2022-10-13T11:14:44.223Z,18.54
2022-10-13T11:19:47.799Z,18.34
2022-10-13T11:24:53.090Z,18.22
2022-10-13T11:29:58.627Z,18.29
2022-10-13T11:35:06.389Z,18.28
2022-10-13T11:40:25.130Z,18.20
2022-10-13T11:45:44.675Z,18.27
2022-10-13T11:51:04.548Z,18.34
2022-10-13T11:56:20.235Z,18.39
2022-10-13T12:01:21.697Z,18.10
2022-10-13T12:06:32.952Z,18.09
2022-10-13T12:11:36.738Z,18.13
2022-10-13T12:16:38.210Z,18.28
2022-10-13T12:21:51.378Z,18.26
2022-10-13T12:26:52.852Z,18.13
2022-10-13T12:31:54.381Z,18.27
2022-10-13T12:37:11.749Z,18.25
2022-10-13T12:42:13.278Z,18.09
2022-10-13T12:47:38.243Z,18.30
2022-10-13T12:52:39.692Z,18.28
2022-10-13T12:57:41.853Z,18.51
2022-10-13T13:02:43.331Z,18.71
2022-10-13T13:07:52.259Z,18.74
2022-10-13T13:12:54.747Z,18.71
2022-10-13T13:18:17.124Z,18.85
2022-10-13T13:23:19.354Z,18.67
2022-10-13T13:28:20.855Z,18.92
2022-10-13T13:33:22.368Z,18.78
2022-10-13T13:38:23.867Z,19.01
2022-10-13T13:43:25.334Z,19.15
2022-10-13T13:48:26.980Z,18.69
2022-10-13T13:53:28.425Z,18.99
2022-10-13T13:58:29.878Z,19.11
2022-10-13T14:03:31.332Z,19.23
2022-10-13T14:08:34.214Z,19.03
2022-10-13T14:13:35.677Z,19.08
2022-10-13T14:18:37.137Z,19.19
2022-10-13T14:23:38.620Z,19.13
2022-10-13T14:28:43.716Z,19.46
2022-10-13T14:33:45.227Z,19.57
2022-10-13T14:38:46.703Z,19.40
2022-10-13T14:43:48.154Z,19.12
2022-10-13T14:48:49.694Z,19.09
2022-10-13T14:53:51.156Z,19.21
2022-10-13T14:58:54.143Z,19.51
2022-10-13T15:03:55.731Z,19.40
2022-10-13T15:08:57.342Z,19.24
2022-10-13T15:13:58.894Z,19.28
2022-10-13T15:19:00.548Z,19.08
2022-10-13T15:24:02.015Z,19.20
2022-10-13T15:29:03.499Z,19.29
2022-10-13T15:34:04.955Z,19.36
2022-10-13T15:39:06.397Z,19.08
2022-10-13T15:44:07.850Z,19.46
2022-10-13T15:49:09.311Z,19.38
2022-10-13T15:54:10.786Z,19.39
2022-10-13T15:59:12.233Z,19.21
2022-10-13T16:04:13.718Z,18.84
2022-10-13T16:09:15.167Z,19.17
2022-10-13T16:14:16.655Z,18.35
2022-10-13T16:19:18.100Z,18.63
2022-10-13T16:24:19.561Z,18.85
2022-10-13T16:29:21.032Z,18.33
2022-10-13T16:34:22.845Z,18.74
2022-10-13T16:39:24.749Z,18.82
2022-10-13T16:44:26.205Z,18.91
2022-10-13T16:49:27.886Z,18.91
2022-10-13T16:54:29.825Z,18.72
2022-10-13T16:59:31.293Z,18.43
2022-10-13T17:04:32.753Z,18.70
2022-10-13T17:09:34.498Z,18.05
2022-10-13T17:14:35.965Z,18.39
2022-10-13T17:19:37.468Z,18.26
2022-10-13T17:24:39.576Z,18.68
2022-10-13T17:29:41.034Z,18.49
2022-10-13T17:34:42.490Z,18.66
2022-10-13T17:39:44.059Z,18.19
2022-10-13T17:44:45.535Z,18.21
2022-10-13T17:49:47.101Z,18.35
2022-10-13T17:54:49.080Z,18.23
2022-10-13T17:59:50.593Z,17.17
2022-10-13T18:04:52.044Z,17.93
2022-10-13T18:09:53.501Z,17.97
2022-10-13T18:14:55.219Z,17.56
2022-10-13T18:19:57.732Z,18.16
2022-10-13T18:24:59.218Z,18.58
2022-10-13T18:30:00.672Z,18.90
2022-10-13T18:35:02.117Z,18.69
2022-10-13T18:40:04.909Z,18.89
2022-10-13T18:45:06.785Z,18.82
2022-10-13T18:50:08.564Z,18.84
2022-10-13T18:55:10.008Z,18.58
2022-10-13T19:00:11.936Z,18.79
2022-10-13T19:05:13.829Z,18.86
2022-10-13T19:10:15.350Z,18.45
2022-10-13T19:15:16.828Z,18.53
2022-10-13T19:20:18.298Z,18.71
2022-10-13T19:25:19.750Z,18.84
2022-10-13T19:30:21.209Z,18.85
2022-10-13T19:35:22.663Z,18.33
2022-10-13T19:40:24.121Z,17.97
2022-10-13T19:45:25.559Z,18.62
2022-10-13T19:50:27.016Z,18.55
2022-10-13T19:55:28.465Z,18.81
2022-10-13T20:00:29.976Z,18.23
2022-10-13T20:05:31.561Z,18.38
2022-10-13T20:10:37.735Z,18.50
2022-10-13T20:15:40.377Z,17.77
2022-10-13T20:20:41.866Z,18.30
2022-10-13T20:25:43.420Z,18.24
2022-10-13T20:30:44.879Z,18.09
2022-10-13T20:35:46.327Z,18.54
2022-10-13T20:40:47.772Z,18.66
2022-10-13T20:45:49.232Z,18.45
2022-10-13T20:50:50.692Z,18.50
2022-10-13T20:55:58.425Z,18.55
2022-10-13T21:01:00.009Z,18.52
2022-10-13T21:06:02.393Z,18.48
2022-10-13T21:11:04.419Z,18.72
2022-10-13T21:16:13.380Z,18.84
2022-10-13T21:21:15.891Z,18.87
2022-10-13T21:26:21.294Z,18.98
2022-10-13T21:31:23.821Z,18.73
2022-10-13T21:36:26.825Z,18.87
2022-10-13T21:41:28.336Z,18.86
2022-10-13T21:46:31.116Z,18.86
2022-10-13T21:51:34.722Z,18.80
2022-10-13T21:56:36.509Z,18.55
2022-10-13T22:01:37.964Z,18.80
2022-10-13T22:06:39.461Z,18.78
2022-10-13T22:11:41.097Z,18.62
2022-10-13T22:16:44.384Z,18.52
2022-10-13T22:21:47.718Z,18.55
2022-10-13T22:26:49.622Z,18.43
2022-10-13T22:31:51.530Z,18.36
2022-10-13T22:36:54.588Z,18.27
2022-10-13T22:41:56.057Z,17.77
2022-10-13T22:46:57.541Z,17.73
2022-10-13T22:51:59.053Z,18.23
2022-10-13T22:57:00.509Z,18.41
2022-10-13T23:02:01.967Z,18.04
2022-10-13T23:07:03.450Z,18.34
2022-10-13T23:12:04.993Z,17.70
2022-10-13T23:17:06.440Z,18.00
2022-10-13T23:22:07.890Z,18.17
2022-10-13T23:27:09.750Z,18.19
2022-10-13T23:32:11.194Z,18.18
2022-10-13T23:37:12.656Z,17.97
2022-10-13T23:42:14.476Z,17.65
2022-10-13T23:47:15.967Z,17.53
2022-10-13T23:52:19.161Z,17.90
2022-10-13T23:57:20.882Z,18.17
